Time;durP1;ratioP1;P1;durP2;ratioP2;P2;SDS_P1;SDS_P2;PMS_P1;PMS_P2;Temp;Humidity;BMP_temperature;BMP_pressure;BME280_temperature;BME280_humidity;BME280_pressure;Samples;Min_cycle;Max_cycle;Signal;HPM_P1;HPM_P2
2023/04/20 00:00:32;;;;;;;8.43;2.65;;;9.60;99.90;;;;;;5046667;28;20043;-91
2023/04/20 00:02:59;;;;;;;5.18;2.13;;;9.50;99.90;;;;;;5055364;28;20045;-90
2023/04/20 00:05:25;;;;;;;5.82;2.30;;;9.50;99.90;;;;;;5055454;28;20905;-90
2023/04/20 00:07:53;;;;;;;4.70;1.85;;;9.50;99.90;;;;;;5072109;28;20055;-92
2023/04/20 00:10:19;;;;;;;4.63;1.73;;;9.40;99.90;;;;;;5069308;28;20032;-91
2023/04/20 00:12:44;;;;;;;3.72;1.70;;;9.40;99.90;;;;;;5059536;28;20062;-92
2023/04/20 00:15:10;;;;;;;5.80;1.55;;;9.70;99.90;;;;;;5056021;28;20151;-91
2023/04/20 00:17:38;;;;;;;5.18;1.77;;;9.40;99.90;;;;;;5072866;28;20042;-89
2023/04/20 00:20:04;;;;;;;4.95;1.70;;;9.50;99.90;;;;;;5069621;28;20044;-91
2023/04/20 00:22:30;;;;;;;4.40;1.77;;;9.50;99.90;;;;;;5069853;28;20549;-90
2023/04/20 00:24:56;;;;;;;5.38;1.80;;;9.50;99.90;;;;;;5042319;28;20038;-90
2023/04/20 00:27:24;;;;;;;7.15;2.13;;;9.50;99.90;;;;;;5049434;28;20364;-91
2023/04/20 00:29:50;;;;;;;4.47;1.60;;;9.50;99.90;;;;;;5078971;28;20067;-91
2023/04/20 00:32:16;;;;;;;5.45;1.77;;;9.50;99.90;;;;;;5077724;28;20075;-90
2023/04/20 00:34:41;;;;;;;4.18;1.88;;;9.50;99.90;;;;;;5060786;28;20040;-91
2023/04/20 00:37:07;;;;;;;6.10;1.80;;;9.50;99.90;;;;;;5038444;28;20044;-91
2023/04/20 00:39:33;;;;;;;4.88;1.42;;;9.50;99.90;;;;;;5046200;28;20601;-92
2023/04/20 00:42:08;;;;;;;5.75;1.63;;;9.50;99.90;;;;;;5079913;28;20598;-91
2023/04/20 00:44:34;;;;;;;5.47;1.77;;;9.50;99.90;;;;;;5054580;28;20355;-90
2023/04/20 00:47:00;;;;;;;4.78;1.58;;;9.50;99.90;;;;;;5058459;28;20060;-92
2023/04/20 00:49:28;;;;;;;6.45;1.80;;;9.70;99.90;;;;;;5054663;28;20052;-90
2023/04/20 00:51:58;;;;;;;4.38;1.55;;;9.80;99.90;;;;;;5038216;28;20068;-90
2023/04/20 00:54:27;;;;;;;3.28;1.30;;;9.60;99.90;;;;;;5071824;28;20047;-90
2023/04/20 00:56:55;;;;;;;4.40;1.40;;;9.60;99.90;;;;;;5071048;28;20040;-91
2023/04/20 00:59:21;;;;;;;4.63;1.58;;;9.70;99.90;;;;;;5042438;28;20056;-90
2023/04/20 01:01:49;;;;;;;7.07;2.13;;;9.60;99.90;;;;;;5056230;28;20090;-90
2023/04/20 01:04:15;;;;;;;3.88;1.50;;;9.60;99.90;;;;;;5043551;28;20050;-89
2023/04/20 01:06:41;;;;;;;5.25;1.75;;;10.10;99.90;;;;;;5038248;28;20036;-91
2023/04/20 01:09:08;;;;;;;5.05;1.67;;;9.50;99.90;;;;;;5052250;28;20039;-91
2023/04/20 01:11:35;;;;;;;6.53;1.77;;;9.50;99.90;;;;;;5076143;28;20040;-91
2023/04/20 01:14:00;;;;;;;5.13;1.77;;;9.50;99.90;;;;;;5068389;28;20036;-90
2023/04/20 01:16:26;;;;;;;3.92;1.75;;;9.50;99.90;;;;;;5077444;28;20036;-89
2023/04/20 01:18:52;;;;;;;7.15;1.80;;;9.50;99.90;;;;;;5042701;28;20050;-90
2023/04/20 01:21:21;;;;;;;6.55;1.70;;;9.50;99.90;;;;;;5046111;28;20397;-90
2023/04/20 01:23:46;;;;;;;4.88;1.63;;;10.00;99.90;;;;;;5077307;28;20148;-88
2023/04/20 01:26:15;;;;;;;4.50;1.60;;;9.60;99.90;;;;;;5038761;28;20134;-90
2023/04/20 01:28:42;;;;;;;6.80;1.63;;;9.60;99.90;;;;;;5072624;28;20051;-91
2023/04/20 01:31:09;;;;;;;3.60;1.65;;;9.60;99.90;;;;;;5038325;28;20037;-90
2023/04/20 01:33:35;;;;;;;6.20;1.80;;;9.60;99.90;;;;;;5036959;28;20038;-90
2023/04/20 01:36:01;;;;;;;4.93;1.73;;;9.60;99.90;;;;;;5060257;28;20109;-91
2023/04/20 01:38:29;;;;;;;5.07;1.50;;;9.60;99.90;;;;;;5061434;28;20078;-91
2023/04/20 01:40:57;;;;;;;5.50;1.70;;;9.60;99.90;;;;;;5042287;28;20045;-90
2023/04/20 01:43:29;;;;;;;6.03;1.80;;;9.60;99.90;;;;;;5072930;28;20094;-90
2023/04/20 01:45:55;;;;;;;5.03;1.98;;;9.60;99.90;;;;;;5079252;28;20044;-91
2023/04/20 01:48:21;;;;;;;3.97;1.95;;;9.50;99.90;;;;;;5040508;28;20040;-91
2023/04/20 01:50:50;;;;;;;9.50;1.98;;;9.50;99.90;;;;;;5079068;28;20040;-91
2023/04/20 01:53:16;;;;;;;4.60;1.73;;;9.50;99.90;;;;;;5064341;28;20040;-91
2023/04/20 01:55:42;;;;;;;6.95;1.75;;;9.50;99.90;;;;;;5042352;28;20189;-91
2023/04/20 01:58:08;;;;;;;5.35;2.00;;;9.50;99.90;;;;;;5060211;28;20045;-90
2023/04/20 02:00:33;;;;;;;4.68;1.92;;;9.40;99.90;;;;;;5042664;28;20042;-90
2023/04/20 02:02:59;;;;;;;7.20;1.95;;;9.40;99.90;;;;;;5060185;28;20096;-91
2023/04/20 02:05:25;;;;;;;7.20;1.88;;;9.40;99.90;;;;;;5057814;28;20040;-90
2023/04/20 02:07:51;;;;;;;6.72;2.30;;;9.30;99.90;;;;;;5053973;28;20076;-89
2023/04/20 02:10:17;;;;;;;3.90;1.52;;;9.40;99.90;;;;;;5058393;28;20040;-91
2023/04/20 02:12:43;;;;;;;5.75;2.20;;;9.20;99.90;;;;;;5057993;28;20034;-89
2023/04/20 02:15:11;;;;;;;7.80;1.80;;;9.20;99.90;;;;;;5057441;28;20040;-91
2023/04/20 02:17:37;;;;;;;6.00;1.95;;;9.20;99.90;;;;;;5043789;28;20033;-89
2023/04/20 02:20:08;;;;;;;5.22;2.03;;;9.20;99.90;;;;;;5057688;28;20047;-90
2023/04/20 02:22:34;;;;;;;4.90;1.70;;;9.10;99.90;;;;;;5063537;28;20050;-88
2023/04/20 02:25:03;;;;;;;8.55;2.40;;;9.10;99.90;;;;;;5053025;28;20036;-91
2023/04/20 02:27:30;;;;;;;6.60;1.70;;;9.10;99.90;;;;;;5058512;28;20050;-90
2023/04/20 02:29:56;;;;;;;4.80;1.60;;;9.10;99.90;;;;;;5072913;28;20056;-89
2023/04/20 02:32:21;;;;;;;9.38;1.75;;;9.00;99.90;;;;;;5073296;28;20135;-91
2023/04/20 02:34:47;;;;;;;7.05;1.77;;;9.00;99.90;;;;;;5056064;28;20114;-90
2023/04/20 02:37:13;;;;;;;5.75;2.05;;;9.00;99.90;;;;;;5045407;28;20044;-90
2023/04/20 02:39:39;;;;;;;5.60;1.90;;;9.00;99.90;;;;;;5056501;28;20040;-91
2023/04/20 02:42:05;;;;;;;5.63;1.70;;;9.00;99.90;;;;;;5058354;28;20561;-92
2023/04/20 02:44:31;;;;;;;6.05;1.67;;;9.00;99.90;;;;;;5045952;28;20162;-90
2023/04/20 02:46:56;;;;;;;4.47;1.45;;;9.00;99.90;;;;;;5072971;28;20095;-91
2023/04/20 02:49:22;;;;;;;7.95;1.95;;;9.00;99.90;;;;;;5075336;28;20048;-90
2023/04/20 02:51:48;;;;;;;6.72;1.90;;;9.80;99.90;;;;;;5063573;28;20095;-90
2023/04/20 02:54:14;;;;;;;6.57;1.83;;;9.00;99.90;;;;;;5061976;28;20103;-90
2023/04/20 02:56:42;;;;;;;5.15;1.85;;;9.00;99.90;;;;;;5043342;28;20040;-90
2023/04/20 02:59:07;;;;;;;5.55;1.67;;;9.00;99.90;;;;;;5055693;28;20035;-91
2023/04/20 03:01:33;;;;;;;5.63;2.20;;;9.00;99.90;;;;;;5062000;28;20097;-90
2023/04/20 03:03:59;;;;;;;7.40;2.20;;;9.10;99.90;;;;;;5072163;28;20094;-89
2023/04/20 03:06:25;;;;;;;3.88;1.60;;;9.00;99.90;;;;;;5065893;28;20045;-90
2023/04/20 03:08:51;;;;;;;6.78;2.08;;;9.00;99.90;;;;;;5057493;28;20036;-90
2023/04/20 03:11:19;;;;;;;4.40;1.90;;;9.00;99.90;;;;;;5068865;28;20047;-91
2023/04/20 03:13:44;;;;;;;6.25;2.28;;;9.10;99.90;;;;;;5063390;28;20037;-89
2023/04/20 03:16:13;;;;;;;5.60;1.50;;;9.10;99.90;;;;;;5081342;28;20066;-91
2023/04/20 03:18:39;;;;;;;5.18;1.95;;;9.10;99.90;;;;;;5045497;28;20032;-90
2023/04/20 03:21:05;;;;;;;5.55;1.90;;;9.10;99.90;;;;;;5079411;28;20049;-90
2023/04/20 03:23:30;;;;;;;5.32;1.58;;;9.10;99.90;;;;;;5059288;28;20044;-90
2023/04/20 03:25:56;;;;;;;5.32;2.00;;;9.10;99.90;;;;;;5040858;28;20474;-89
2023/04/20 03:28:22;;;;;;;7.45;1.92;;;9.10;99.90;;;;;;5057744;28;20072;-89
2023/04/20 03:30:48;;;;;;;6.22;2.03;;;9.10;99.90;;;;;;5055084;28;20051;-90
2023/04/20 03:33:14;;;;;;;7.43;1.90;;;9.10;99.90;;;;;;5056817;28;20032;-90
2023/04/20 03:35:41;;;;;;;4.00;1.65;;;9.00;99.90;;;;;;5061707;28;20107;-90
2023/04/20 03:38:07;;;;;;;6.45;1.95;;;9.00;99.90;;;;;;5060909;28;20063;-89
2023/04/20 03:40:34;;;;;;;5.25;1.67;;;9.00;99.90;;;;;;5055386;28;20046;-90
2023/04/20 03:43:00;;;;;;;4.50;1.73;;;9.00;99.90;;;;;;5055998;28;20039;-90
2023/04/20 03:45:25;;;;;;;3.33;1.63;;;9.00;99.90;;;;;;5067488;28;20036;-90
2023/04/20 03:47:51;;;;;;;5.05;1.63;;;9.00;99.90;;;;;;5076546;28;20062;-91
2023/04/20 03:50:17;;;;;;;5.30;1.40;;;9.00;99.90;;;;;;5064305;28;20044;-90
2023/04/20 03:52:43;;;;;;;3.90;1.70;;;9.40;99.90;;;;;;5078223;28;20036;-90
2023/04/20 03:55:09;;;;;;;5.38;2.10;;;9.00;99.90;;;;;;5078531;28;20044;-91
2023/04/20 03:57:36;;;;;;;4.90;1.88;;;9.00;99.90;;;;;;5076005;28;20044;-90
2023/04/20 04:00:03;;;;;;;4.70;1.92;;;9.00;99.90;;;;;;5060139;28;20041;-91
2023/04/20 04:02:30;;;;;;;5.10;1.98;;;9.00;99.90;;;;;;5060102;28;20565;-91
2023/04/20 04:04:56;;;;;;;5.50;1.80;;;9.00;99.90;;;;;;5039441;28;20051;-90
2023/04/20 04:07:21;;;;;;;4.50;2.00;;;9.00;99.90;;;;;;5055451;28;20123;-90
2023/04/20 04:09:47;;;;;;;4.18;1.60;;;9.00;99.90;;;;;;5057780;28;20051;-92
2023/04/20 04:12:13;;;;;;;8.93;1.90;;;9.00;99.90;;;;;;5058572;28;20033;-90
2023/04/20 04:14:39;;;;;;;6.32;2.05;;;9.00;99.90;;;;;;5080960;28;20076;-90
2023/04/20 04:17:06;;;;;;;6.63;1.80;;;9.00;99.90;;;;;;5082408;28;20051;-90
2023/04/20 04:19:32;;;;;;;4.45;1.60;;;8.90;99.90;;;;;;5076601;28;20121;-91
2023/04/20 04:21:58;;;;;;;4.13;1.80;;;8.90;99.90;;;;;;5072741;28;20098;-91
2023/04/20 04:24:23;;;;;;;6.50;1.92;;;8.90;99.90;;;;;;5055241;28;20040;-89
2023/04/20 04:26:49;;;;;;;3.40;1.63;;;8.90;99.90;;;;;;5054687;28;20044;-91
2023/04/20 04:29:15;;;;;;;6.95;1.77;;;8.90;99.90;;;;;;5060353;28;20060;-90
2023/04/20 04:31:41;;;;;;;8.13;1.80;;;8.90;99.90;;;;;;5076242;28;20033;-91
2023/04/20 04:34:06;;;;;;;5.75;1.63;;;8.90;99.90;;;;;;5054236;28;20067;-90
2023/04/20 04:36:32;;;;;;;5.30;1.88;;;8.90;99.90;;;;;;5071893;28;20033;-91
2023/04/20 04:38:58;;;;;;;4.10;1.65;;;8.80;99.90;;;;;;5060243;28;20445;-91
2023/04/20 04:41:24;;;;;;;3.85;1.30;;;8.80;99.90;;;;;;5056098;28;20055;-91
2023/04/20 04:43:50;;;;;;;5.95;1.88;;;9.00;99.90;;;;;;5055049;28;20047;-91
2023/04/20 04:46:16;;;;;;;8.63;1.95;;;8.80;99.90;;;;;;5078411;28;20051;-90
2023/04/20 04:48:42;;;;;;;4.30;1.80;;;8.80;99.90;;;;;;5078699;28;20055;-90
2023/04/20 04:51:08;;;;;;;8.18;2.17;;;8.80;99.90;;;;;;5060817;28;20036;-89
2023/04/20 04:53:34;;;;;;;5.53;2.10;;;8.80;99.90;;;;;;5071642;28;20071;-88
2023/04/20 04:56:01;;;;;;;4.80;1.58;;;8.80;99.90;;;;;;5074605;28;20049;-90
2023/04/20 04:58:27;;;;;;;6.55;2.10;;;8.70;99.90;;;;;;5053992;28;20055;-90
2023/04/20 05:00:53;;;;;;;8.18;2.15;;;8.70;99.90;;;;;;5051045;28;20044;-89
2023/04/20 05:03:18;;;;;;;5.47;1.60;;;8.70;99.90;;;;;;5058326;28;20036;-92
2023/04/20 05:05:44;;;;;;;5.75;2.00;;;8.60;99.90;;;;;;5059955;28;20048;-91
2023/04/20 05:08:11;;;;;;;3.53;1.52;;;8.60;99.90;;;;;;5063626;28;20044;-93
2023/04/20 05:10:37;;;;;;;4.53;2.00;;;8.60;99.90;;;;;;5066724;28;20040;-91
2023/04/20 05:13:02;;;;;;;6.50;2.42;;;8.70;99.90;;;;;;5069030;28;20123;-92
2023/04/20 05:15:28;;;;;;;6.70;2.17;;;8.50;99.90;;;;;;5080450;28;20036;-91
2023/04/20 05:17:54;;;;;;;5.05;2.03;;;8.50;99.90;;;;;;5039769;28;20911;-92
2023/04/20 05:20:19;;;;;;;6.70;2.28;;;8.50;99.90;;;;;;5074659;28;20040;-92
2023/04/20 05:22:45;;;;;;;6.50;2.50;;;8.40;99.90;;;;;;5055695;28;20056;-92
2023/04/20 05:25:11;;;;;;;5.07;1.88;;;8.40;99.90;;;;;;5062933;28;20064;-90
2023/04/20 05:27:37;;;;;;;9.43;2.53;;;8.40;99.90;;;;;;5061594;28;20052;-90
2023/04/20 05:30:04;;;;;;;4.80;2.15;;;8.40;99.90;;;;;;5079641;28;20046;-93
2023/04/20 05:32:29;;;;;;;4.70;2.20;;;8.40;99.90;;;;;;5064623;28;20052;-93
2023/04/20 05:34:57;;;;;;;6.32;2.47;;;8.40;99.90;;;;;;5057306;28;20148;-95
2023/04/20 05:37:22;;;;;;;7.30;2.30;;;8.40;99.90;;;;;;5060457;28;20047;-93
2023/04/20 05:39:48;;;;;;;4.47;2.25;;;9.20;99.90;;;;;;5061153;28;20040;-93
2023/04/20 05:42:17;;;;;;;7.65;2.45;;;8.30;99.90;;;;;;5063734;28;20036;-95
2023/04/20 05:44:42;;;;;;;6.05;2.15;;;8.40;99.90;;;;;;5040859;28;20043;-95
2023/04/20 05:47:08;;;;;;;7.93;2.10;;;8.30;99.90;;;;;;5067505;28;20032;-93
2023/04/20 05:49:34;;;;;;;4.65;2.28;;;8.30;99.90;;;;;;5053430;28;20035;-91
2023/04/20 05:52:00;;;;;;;9.25;3.00;;;8.40;99.90;;;;;;5039906;28;20343;-95
2023/04/20 05:54:29;;;;;;;10.30;2.60;;;8.40;99.90;;;;;;5052559;28;20040;-92
2023/04/20 05:56:57;;;;;;;6.22;2.20;;;8.40;99.90;;;;;;5028895;28;20110;-92
2023/04/20 05:59:24;;;;;;;7.07;2.33;;;8.40;99.90;;;;;;5054097;28;20036;-92
2023/04/20 06:01:50;;;;;;;3.45;1.85;;;8.90;99.90;;;;;;5057199;28;20047;-89
2023/04/20 06:04:16;;;;;;;5.40;2.38;;;8.30;99.90;;;;;;5058107;28;20100;-88
2023/04/20 06:06:41;;;;;;;5.97;2.20;;;8.30;99.90;;;;;;5049481;28;20542;-90
2023/04/20 06:09:10;;;;;;;5.88;2.47;;;8.30;99.90;;;;;;5071179;28;20050;-91
2023/04/20 06:11:36;;;;;;;5.68;2.40;;;8.30;99.90;;;;;;5052662;28;20048;-88
2023/04/20 06:14:02;;;;;;;5.63;1.98;;;8.30;99.90;;;;;;5045757;28;20040;-86
2023/04/20 06:16:28;;;;;;;9.82;2.92;;;8.30;99.90;;;;;;5048077;28;20040;-90
2023/04/20 06:18:53;;;;;;;5.88;2.20;;;8.20;99.90;;;;;;5070779;28;20906;-87
2023/04/20 06:21:19;;;;;;;8.00;2.65;;;8.20;99.90;;;;;;5051767;28;20066;-86
2023/04/20 06:23:45;;;;;;;6.60;3.38;;;8.30;99.90;;;;;;5030594;28;20044;-86
2023/04/20 06:26:11;;;;;;;8.00;2.53;;;8.30;99.90;;;;;;5043516;28;20031;-86
2023/04/20 06:28:37;;;;;;;4.78;2.22;;;8.30;99.90;;;;;;5061512;28;20618;-86
2023/04/20 06:31:03;;;;;;;4.95;2.38;;;8.20;99.90;;;;;;5045597;28;20155;-88
2023/04/20 06:33:29;;;;;;;8.13;2.40;;;8.30;99.90;;;;;;5046314;28;20047;-87
2023/04/20 06:35:55;;;;;;;7.78;2.55;;;8.20;99.90;;;;;;5069633;28;20048;-86
2023/04/20 06:38:24;;;;;;;6.68;2.20;;;8.60;99.90;;;;;;5035621;28;20121;-87
2023/04/20 06:40:50;;;;;;;5.82;2.25;;;8.20;99.90;;;;;;5046124;28;20719;-88
2023/04/20 06:43:16;;;;;;;6.22;2.17;;;8.20;99.90;;;;;;5050165;28;20070;-88
2023/04/20 06:45:41;;;;;;;7.95;2.67;;;8.20;99.90;;;;;;5045061;28;20181;-87
2023/04/20 06:48:08;;;;;;;5.40;2.42;;;8.20;99.90;;;;;;5046147;28;20048;-88
2023/04/20 06:50:34;;;;;;;6.43;2.78;;;8.20;99.90;;;;;;5050076;28;20374;-87
2023/04/20 06:53:02;;;;;;;5.88;2.70;;;8.10;99.90;;;;;;5054325;28;20093;-88
2023/04/20 06:55:28;;;;;;;6.55;2.60;;;8.10;99.90;;;;;;5044631;28;20120;-88
2023/04/20 06:57:54;;;;;;;7.57;2.25;;;8.10;99.90;;;;;;5061737;28;20130;-88
2023/04/20 07:00:19;;;;;;;6.85;2.47;;;8.10;99.90;;;;;;5049756;28;20616;-87
2023/04/20 07:02:47;;;;;;;5.68;2.17;;;8.10;99.90;;;;;;5050949;28;20053;-87
2023/04/20 07:05:14;;;;;;;6.90;3.05;;;8.10;99.90;;;;;;5044811;28;20440;-89
2023/04/20 07:07:40;;;;;;;8.05;3.08;;;8.10;99.90;;;;;;5073807;28;20037;-90
2023/04/20 07:10:10;;;;;;;6.53;2.63;;;8.10;99.90;;;;;;5058411;28;20045;-90
2023/04/20 07:12:37;;;;;;;6.15;2.80;;;8.10;99.90;;;;;;5053170;28;20593;-90
2023/04/20 07:15:04;;;;;;;7.10;2.42;;;8.20;99.90;;;;;;5073666;28;20039;-90
2023/04/20 07:17:30;;;;;;;5.53;2.50;;;8.10;99.90;;;;;;5070861;28;20163;-90
2023/04/20 07:19:57;;;;;;;6.57;3.10;;;8.00;99.90;;;;;;5050285;28;20049;-91
2023/04/20 07:22:24;;;;;;;8.35;3.00;;;8.10;99.90;;;;;;5050207;28;20048;-90
2023/04/20 07:24:50;;;;;;;6.35;2.47;;;8.00;99.90;;;;;;5035920;28;20463;-90
2023/04/20 07:27:17;;;;;;;6.25;2.78;;;8.30;99.90;;;;;;5042317;28;20041;-89
2023/04/20 07:29:43;;;;;;;4.95;2.65;;;8.00;99.90;;;;;;5070540;28;20157;-91
2023/04/20 07:32:09;;;;;;;8.27;2.72;;;8.00;99.90;;;;;;5056868;28;20044;-90
2023/04/20 07:34:37;;;;;;;6.93;2.60;;;8.10;99.90;;;;;;5059242;28;20048;-91
2023/04/20 07:37:06;;;;;;;7.38;3.47;;;8.10;99.90;;;;;;5055737;28;20052;-90
2023/04/20 07:39:32;;;;;;;7.10;3.03;;;8.10;99.90;;;;;;5057840;28;20040;-91
2023/04/20 07:41:58;;;;;;;6.40;2.85;;;7.90;99.90;;;;;;5051030;28;20066;-91
2023/04/20 07:44:24;;;;;;;7.05;2.78;;;8.20;99.90;;;;;;5034253;28;20494;-90
2023/04/20 07:46:54;;;;;;;6.68;3.13;;;8.80;99.90;;;;;;5056330;28;20054;-90
2023/04/20 07:49:20;;;;;;;7.35;3.05;;;9.10;99.90;;;;;;5070701;28;20051;-90
2023/04/20 07:51:46;;;;;;;5.80;2.50;;;8.10;99.90;;;;;;5052993;28;20055;-90
2023/04/20 07:54:11;;;;;;;7.30;3.00;;;8.10;99.90;;;;;;5051853;28;20040;-90
2023/04/20 07:56:40;;;;;;;5.88;2.80;;;8.10;99.90;;;;;;5035917;28;20083;-92
2023/04/20 07:59:07;;;;;;;6.68;2.55;;;8.10;99.90;;;;;;5050181;28;20044;-91
2023/04/20 08:01:35;;;;;;;5.72;2.38;;;8.10;99.90;;;;;;5050063;28;20517;-91
2023/04/20 08:04:01;;;;;;;7.20;3.40;;;7.90;99.90;;;;;;5053420;28;20037;-91
2023/04/20 08:06:27;;;;;;;5.65;2.90;;;8.20;99.90;;;;;;5054997;28;20043;-91
2023/04/20 08:08:53;;;;;;;8.75;3.58;;;8.20;99.90;;;;;;5057228;28;20048;-91
2023/04/20 08:11:20;;;;;;;6.97;2.95;;;8.00;99.90;;;;;;5051945;28;20071;-90
2023/04/20 08:13:46;;;;;;;6.05;2.90;;;8.30;99.90;;;;;;5071823;28;20045;-91
2023/04/20 08:16:12;;;;;;;6.85;3.00;;;8.30;99.90;;;;;;5040297;28;20035;-90
2023/04/20 08:18:38;;;;;;;6.80;3.10;;;8.30;99.90;;;;;;5053356;28;20614;-90
2023/04/20 08:21:04;;;;;;;5.47;2.88;;;8.40;99.90;;;;;;5048965;28;20080;-91
2023/04/20 08:23:30;;;;;;;6.75;2.60;;;8.40;99.90;;;;;;5037416;28;20491;-90
2023/04/20 08:25:56;;;;;;;6.18;3.25;;;8.40;99.90;;;;;;5071486;28;20407;-89
2023/04/20 08:28:22;;;;;;;6.88;2.80;;;8.40;99.90;;;;;;5048070;28;20059;-90
2023/04/20 08:30:49;;;;;;;5.80;2.97;;;8.70;99.90;;;;;;5047509;28;20189;-90
2023/04/20 08:33:16;;;;;;;7.05;2.92;;;8.50;99.90;;;;;;5054728;28;20374;-92
2023/04/20 08:35:42;;;;;;;6.28;2.97;;;8.60;99.90;;;;;;5037088;28;20076;-91
2023/04/20 08:38:08;;;;;;;5.40;2.60;;;8.70;99.90;;;;;;5047807;28;20048;-89
2023/04/20 08:40:36;;;;;;;5.78;2.75;;;8.60;99.90;;;;;;5070817;28;20028;-88
2023/04/20 08:43:02;;;;;;;6.97;3.17;;;8.60;99.90;;;;;;5050360;28;20040;-89
2023/04/20 08:45:31;;;;;;;6.75;3.58;;;8.60;99.90;;;;;;5053568;28;20044;-88
2023/04/20 08:48:04;;;;;;;10.45;3.72;;;8.60;99.90;;;;;;5052575;28;20056;-89
2023/04/20 08:50:30;;;;;;;6.72;3.22;;;8.50;99.90;;;;;;5050814;28;20073;-88
2023/04/20 08:52:59;;;;;;;8.23;3.78;;;8.50;99.90;;;;;;5062481;28;20048;-89
2023/04/20 08:55:25;;;;;;;7.38;3.40;;;8.50;99.90;;;;;;5067649;28;20142;-89
2023/04/20 08:57:51;;;;;;;11.18;4.00;;;8.50;99.90;;;;;;5046135;28;20738;-89
2023/04/20 09:00:17;;;;;;;9.02;3.97;;;8.50;99.90;;;;;;5048527;28;20048;-89
2023/04/20 09:02:57;;;;;;;9.20;3.60;;;8.60;99.90;;;;;;5033782;28;20055;-88
2023/04/20 09:05:32;;;;;;;9.05;3.78;;;8.70;99.90;;;;;;5044922;28;20490;-89
2023/04/20 09:08:00;;;;;;;7.35;3.92;;;8.70;99.90;;;;;;5045150;28;20053;-88
2023/04/20 09:10:41;;;;;;;9.32;3.55;;;8.80;99.90;;;;;;5048332;28;20040;-89
2023/04/20 09:13:08;;;;;;;8.00;3.80;;;8.90;99.90;;;;;;5041307;28;20052;-89
2023/04/20 09:15:34;;;;;;;8.60;4.00;;;9.00;99.90;;;;;;5044828;28;20112;-90
2023/04/20 09:18:11;;;;;;;7.68;3.70;;;9.00;99.90;;;;;;5044244;28;20479;-89
2023/04/20 09:20:37;;;;;;;6.88;3.80;;;9.00;99.90;;;;;;5064138;28;20040;-89
2023/04/20 09:23:13;;;;;;;7.40;3.35;;;9.10;99.90;;;;;;5063046;28;20046;-89
2023/04/20 09:25:39;;;;;;;7.30;3.47;;;9.20;99.90;;;;;;5056588;28;20063;-89
2023/04/20 09:28:06;;;;;;;7.40;3.67;;;9.10;99.90;;;;;;5049819;28;20080;-89
2023/04/20 09:30:46;;;;;;;8.52;3.80;;;9.10;99.90;;;;;;5046355;28;20049;-90
2023/04/20 09:33:13;;;;;;;9.13;4.20;;;9.00;99.90;;;;;;5029847;28;20056;-89
2023/04/20 09:35:43;;;;;;;7.57;4.03;;;9.00;99.90;;;;;;5039080;28;20040;-89
2023/04/20 09:38:14;;;;;;;7.18;3.80;;;9.00;99.90;;;;;;5042366;28;20048;-89
2023/04/20 09:40:40;;;;;;;8.80;4.00;;;9.00;99.90;;;;;;5066835;28;20083;-90
2023/04/20 09:43:16;;;;;;;7.85;4.47;;;9.00;99.90;;;;;;5067857;28;20053;-89
2023/04/20 09:45:43;;;;;;;7.82;3.63;;;9.00;99.90;;;;;;5028589;28;20040;-89
2023/04/20 09:48:10;;;;;;;10.05;5.03;;;9.00;99.90;;;;;;5068635;28;20048;-89
2023/04/20 09:50:37;;;;;;;8.93;3.95;;;9.00;99.90;;;;;;5033565;28;20377;-90
2023/04/20 09:53:03;;;;;;;7.70;4.03;;;9.00;99.90;;;;;;5061879;28;20119;-89
2023/04/20 09:55:30;;;;;;;8.65;4.80;;;9.00;99.90;;;;;;5049279;28;20475;-89
2023/04/20 09:57:57;;;;;;;7.80;3.97;;;9.00;99.90;;;;;;5065505;28;20133;-89
2023/04/20 10:00:24;;;;;;;9.40;4.43;;;9.00;99.90;;;;;;5030347;28;20077;-89
2023/04/20 10:02:50;;;;;;;8.27;4.15;;;9.10;99.90;;;;;;5068529;28;20054;-91
2023/04/20 10:05:16;;;;;;;9.02;4.40;;;9.00;99.90;;;;;;5031054;28;20059;-90
2023/04/20 10:07:43;;;;;;;8.90;4.78;;;9.00;99.90;;;;;;5035474;28;20040;-90
2023/04/20 10:10:12;;;;;;;8.68;4.35;;;9.00;99.90;;;;;;5047905;28;20044;-89
2023/04/20 10:12:54;;;;;;;9.57;4.13;;;9.00;99.90;;;;;;5064487;28;20072;-89
2023/04/20 10:15:20;;;;;;;8.32;4.20;;;9.00;99.90;;;;;;5051351;28;20040;-89
2023/04/20 10:17:47;;;;;;;7.00;4.00;;;9.00;99.90;;;;;;5050034;28;20052;-89
2023/04/20 10:20:24;;;;;;;10.30;4.63;;;9.00;99.90;;;;;;5070838;28;20707;-88
2023/04/20 10:22:51;;;;;;;9.70;4.70;;;9.00;99.90;;;;;;5046953;28;20045;-89
2023/04/20 10:25:20;;;;;;;7.78;4.45;;;9.00;99.90;;;;;;5068826;28;20036;-89
2023/04/20 10:28:03;;;;;;;10.20;4.78;;;9.00;99.90;;;;;;5059791;28;20064;-90
2023/04/20 10:30:30;;;;;;;10.25;4.43;;;9.10;99.90;;;;;;5028081;28;20045;-89
2023/04/20 10:33:10;;;;;;;9.73;4.45;;;9.10;99.90;;;;;;5065402;28;20053;-89
2023/04/20 10:35:50;;;;;;;9.35;4.68;;;9.10;99.90;;;;;;5041284;28;20477;-83
2023/04/20 10:38:34;;;;;;;10.52;4.53;;;9.10;99.90;;;;;;5040854;28;20099;-83
2023/04/20 10:41:05;;;;;;;9.00;4.68;;;9.10;99.90;;;;;;5032534;28;20052;-83
2023/04/20 10:43:31;;;;;;;11.18;5.18;;;9.10;99.90;;;;;;5044958;28;20062;-82
2023/04/20 10:45:57;;;;;;;8.50;4.75;;;9.10;99.90;;;;;;5031117;28;20036;-82
2023/04/20 10:48:23;;;;;;;8.05;4.43;;;9.20;99.90;;;;;;5046352;28;20124;-81
2023/04/20 10:50:49;;;;;;;8.25;4.10;;;9.20;99.90;;;;;;5041904;28;20036;-82
2023/04/20 10:53:22;;;;;;;8.05;4.47;;;9.30;99.90;;;;;;5047816;28;20051;-87
2023/04/20 10:55:59;;;;;;;8.27;5.23;;;9.30;99.90;;;;;;5052371;28;20564;-85
2023/04/20 10:58:25;;;;;;;8.98;4.35;;;9.40;99.90;;;;;;5068752;28;20341;-87
2023/04/20 11:01:02;;;;;;;11.20;5.88;;;9.40;99.90;;;;;;5054495;28;20109;-87
2023/04/20 11:03:29;;;;;;;8.93;5.30;;;9.40;99.90;;;;;;5069661;28;20418;-88
2023/04/20 11:05:59;;;;;;;9.20;5.00;;;9.40;99.90;;;;;;5074751;28;20120;-89
2023/04/20 11:08:42;;;;;;;11.00;5.63;;;9.40;99.90;;;;;;5049788;28;20387;-87
2023/04/20 11:11:23;;;;;;;12.00;5.47;;;9.40;99.90;;;;;;5047883;28;20040;-86
2023/04/20 11:13:49;;;;;;;10.32;6.10;;;9.40;99.90;;;;;;5102716;22;20506;-86
2023/04/20 11:16:17;;;;;;;10.85;6.82;;;9.30;99.90;;;;;;5068661;28;20130;-84
2023/04/20 11:18:54;;;;;;;10.07;6.40;;;9.30;99.90;;;;;;5075999;28;20567;-84
2023/04/20 11:21:21;;;;;;;11.40;6.22;;;9.30;99.90;;;;;;5089641;28;20059;-85
2023/04/20 11:23:48;;;;;;;11.07;5.93;;;9.20;99.90;;;;;;5073237;28;20047;-83
2023/04/20 11:26:15;;;;;;;12.88;6.63;;;9.30;99.90;;;;;;5067571;28;20485;-84
2023/04/20 11:28:54;;;;;;;12.85;7.18;;;9.30;99.90;;;;;;5090414;28;20499;-84
2023/04/20 11:31:21;;;;;;;10.93;6.60;;;9.30;99.90;;;;;;5069469;28;20040;-82
2023/04/20 11:33:49;;;;;;;10.30;5.93;;;9.30;99.90;;;;;;5068093;28;20047;-83
2023/04/20 11:36:20;;;;;;;10.63;6.68;;;9.20;99.90;;;;;;5070237;28;20052;-82
2023/04/20 11:38:46;;;;;;;11.90;7.13;;;9.20;99.90;;;;;;5051844;28;20117;-83
2023/04/20 11:41:12;;;;;;;12.45;6.72;;;9.20;99.90;;;;;;5056207;28;20044;-84
2023/04/20 11:43:38;;;;;;;11.10;6.40;;;9.20;99.90;;;;;;5087569;28;20089;-84
2023/04/20 11:46:13;;;;;;;11.20;6.32;;;9.20;99.90;;;;;;5090097;28;20159;-83
2023/04/20 11:48:39;;;;;;;13.98;7.25;;;9.20;99.90;;;;;;5111457;22;20673;-83
2023/04/20 11:51:05;;;;;;;15.82;8.18;;;9.30;99.90;;;;;;5072421;28;20458;-84
2023/04/20 11:53:31;;;;;;;12.27;7.53;;;9.30;99.90;;;;;;5074307;28;20063;-84
2023/04/20 11:55:57;;;;;;;14.70;8.20;;;10.20;99.90;;;;;;5054981;28;20146;-83
2023/04/20 11:58:27;;;;;;;12.98;8.95;;;9.40;99.90;;;;;;5072009;28;20047;-85
2023/04/20 12:00:52;;;;;;;12.90;8.10;;;9.50;99.90;;;;;;5052504;28;20051;-85
2023/04/20 12:03:18;;;;;;;15.60;9.32;;;9.20;99.90;;;;;;5045033;28;20518;-85
2023/04/20 12:05:44;;;;;;;13.73;8.23;;;9.50;99.90;;;;;;5061201;28;20041;-84
2023/04/20 12:08:10;;;;;;;13.50;8.30;;;10.20;99.90;;;;;;5050032;28;20624;-84
2023/04/20 12:10:35;;;;;;;13.60;8.57;;;9.70;99.90;;;;;;5044244;28;20343;-87
2023/04/20 12:13:01;;;;;;;14.40;8.50;;;9.90;99.90;;;;;;5026232;28;20332;-86
2023/04/20 12:15:27;;;;;;;13.93;7.78;;;10.20;99.90;;;;;;5074700;28;20044;-86
2023/04/20 12:17:53;;;;;;;10.75;7.90;;;10.60;99.90;;;;;;5070796;28;20135;-84
2023/04/20 12:20:19;;;;;;;13.07;7.75;;;10.90;99.90;;;;;;5075704;28;20043;-86
2023/04/20 12:22:44;;;;;;;13.13;8.13;;;11.20;99.90;;;;;;5054932;28;20552;-86
2023/04/20 12:25:10;;;;;;;14.57;7.95;;;11.40;99.90;;;;;;5052648;28;20071;-86
2023/04/20 12:27:36;;;;;;;11.88;7.88;;;11.50;99.90;;;;;;5071110;28;20042;-86
2023/04/20 12:30:02;;;;;;;10.65;7.28;;;11.60;99.90;;;;;;5076489;28;20052;-86
2023/04/20 12:32:29;;;;;;;11.10;7.88;;;11.70;99.90;;;;;;5040496;28;20546;-86
2023/04/20 12:34:54;;;;;;;12.88;8.07;;;11.80;99.90;;;;;;5057385;28;20047;-86
2023/04/20 12:37:20;;;;;;;12.52;7.70;;;11.80;99.90;;;;;;5070943;28;20044;-87
2023/04/20 12:39:46;;;;;;;12.40;7.35;;;11.80;99.90;;;;;;5073423;28;20044;-87
2023/04/20 12:42:12;;;;;;;12.50;7.60;;;11.80;99.90;;;;;;5076262;28;20389;-87
2023/04/20 12:44:37;;;;;;;11.50;7.40;;;11.80;99.90;;;;;;5056459;28;20043;-87
2023/04/20 12:47:03;;;;;;;12.63;7.75;;;11.90;99.90;;;;;;5069838;28;21309;-87
2023/04/20 12:49:29;;;;;;;10.70;7.40;;;11.90;99.90;;;;;;5081716;28;20057;-94
2023/04/20 12:51:55;;;;;;;12.13;7.70;;;11.90;99.90;;;;;;5085170;28;20051;-90
2023/04/20 12:54:20;;;;;;;10.27;6.85;;;11.90;99.90;;;;;;5084888;28;20047;-92